Time;durP1;ratioP1;P1;durP2;ratioP2;P2;SDS_P1;SDS_P2;PMS_P1;PMS_P2;Temp;Humidity;BMP_temperature;BMP_pressure;BME280_temperature;BME280_humidity;BME280_pressure;Samples;Min_cycle;Max_cycle;Signal;HPM_P1;HPM_P2
2023/12/12 00:00:35;;;;;;;7.70;5.43;;;;;;;;;;5013982;28;20890;-82
2023/12/12 00:03:01;;;;;;;13.63;5.83;;;;;;;;;;5012608;28;20455;-83
2023/12/12 00:05:27;;;;;;;11.17;6.00;;;;;;;;;;5013506;28;20484;-87
2023/12/12 00:07:53;;;;;;;9.27;4.97;;;;;;;;;;5013849;28;20417;-83
2023/12/12 00:10:20;;;;;;;7.40;4.37;;;;;;;;;;5013695;28;20549;-83
2023/12/12 00:12:48;;;;;;;9.20;5.10;;;;;;;;;;4983284;28;20437;-85
2023/12/12 00:15:14;;;;;;;11.90;4.73;;;;;;;;;;5028883;28;20415;-83
2023/12/12 00:17:40;;;;;;;7.57;3.93;;;;;;;;;;5013699;28;20478;-85
2023/12/12 00:20:10;;;;;;;9.23;4.50;;;;;;;;;;5013630;28;20785;-85
2023/12/12 00:22:40;;;;;;;12.50;3.83;;;;;;;;;;5013645;28;20422;-86
2023/12/12 00:25:06;;;;;;;7.63;4.60;;;;;;;;;;5013241;28;20537;-85
2023/12/12 00:27:32;;;;;;;8.43;4.23;;;;;;;;;;5028671;28;20429;-86
2023/12/12 00:29:58;;;;;;;8.47;3.20;;;;;;;;;;5028446;28;20478;-85
2023/12/12 00:32:24;;;;;;;10.67;5.03;;;;;;;;;;5005575;28;20435;-85
2023/12/12 00:34:51;;;;;;;9.73;4.07;;;;;;;;;;4996801;28;20917;-86
2023/12/12 00:37:17;;;;;;;9.87;5.47;;;;;;;;;;5013316;28;20566;-86
2023/12/12 00:39:43;;;;;;;10.50;5.30;;;;;;;;;;5012009;28;20963;-84
2023/12/12 00:42:08;;;;;;;8.07;4.90;;;;;;;;;;5008096;28;20201;-85
2023/12/12 00:44:35;;;;;;;12.93;5.30;;;;;;;;;;4999361;28;20612;-85
2023/12/12 00:47:01;;;;;;;10.73;5.10;;;;;;;;;;5012311;28;20179;-85
2023/12/12 00:49:26;;;;;;;11.13;5.63;;;;;;;;;;5028163;28;20481;-85
2023/12/12 00:51:52;;;;;;;9.90;5.90;;;;;;;;;;5013172;28;20417;-85
2023/12/12 00:54:18;;;;;;;11.07;6.57;;;;;;;;;;5028480;28;20182;-84
2023/12/12 00:56:46;;;;;;;11.23;6.63;;;;;;;;;;5013220;28;20433;-84
2023/12/12 00:59:12;;;;;;;11.77;6.03;;;;;;;;;;5012850;28;20484;-84
2023/12/12 01:01:38;;;;;;;13.40;5.80;;;;;;;;;;5013111;28;20453;-85
2023/12/12 01:04:04;;;;;;;13.07;7.47;;;;;;;;;;5013132;28;20474;-84
2023/12/12 01:06:30;;;;;;;11.60;7.37;;;;;;;;;;5013125;28;20417;-85
2023/12/12 01:08:56;;;;;;;12.40;6.87;;;;;;;;;;5028144;28;20539;-84
2023/12/12 01:11:22;;;;;;;13.27;8.27;;;;;;;;;;5018516;28;20925;-86
2023/12/12 01:13:51;;;;;;;14.07;7.80;;;;;;;;;;4983925;28;20452;-86
2023/12/12 01:16:17;;;;;;;14.30;7.97;;;;;;;;;;5028221;28;20428;-85
2023/12/12 01:18:43;;;;;;;12.60;8.57;;;;;;;;;;5012992;28;20415;-84
2023/12/12 01:21:09;;;;;;;12.70;7.70;;;;;;;;;;5013055;28;20784;-83
2023/12/12 01:23:47;;;;;;;19.90;10.67;;;;;;;;;;5013011;28;20892;-83
2023/12/12 01:26:14;;;;;;;15.87;8.70;;;;;;;;;;5012942;28;20530;-84
2023/12/12 01:28:39;;;;;;;14.00;9.00;;;;;;;;;;5012457;28;20497;-84
2023/12/12 01:31:05;;;;;;;14.57;8.97;;;;;;;;;;5028131;28;20583;-84
2023/12/12 01:33:31;;;;;;;19.63;10.07;;;;;;;;;;5012904;28;20178;-83
2023/12/12 01:35:57;;;;;;;12.50;8.00;;;;;;;;;;5027983;28;20427;-83
2023/12/12 01:38:23;;;;;;;17.33;10.47;;;;;;;;;;5012821;28;20409;-83
2023/12/12 01:40:53;;;;;;;15.50;9.10;;;;;;;;;;5027930;28;20420;-84
2023/12/12 01:43:25;;;;;;;17.23;10.43;;;;;;;;;;5012529;28;20404;-84
2023/12/12 01:45:51;;;;;;;15.30;9.63;;;;;;;;;;5012785;28;20830;-84
2023/12/12 01:48:17;;;;;;;16.70;10.23;;;;;;;;;;5012680;28;20463;-84
2023/12/12 01:50:44;;;;;;;17.87;10.00;;;;;;;;;;5012605;28;20474;-84
2023/12/12 01:53:10;;;;;;;14.43;9.63;;;;;;;;;;5012906;28;20418;-84
2023/12/12 01:55:36;;;;;;;20.07;9.50;;;;;;;;;;5012760;28;20507;-84
2023/12/12 01:58:02;;;;;;;24.60;9.27;;;;;;;;;;5013942;28;20486;-84
2023/12/12 02:00:28;;;;;;;15.60;9.43;;;;;;;;;;5016106;28;20413;-85
2023/12/12 02:02:54;;;;;;;18.87;9.20;;;;;;;;;;5031483;28;20836;-84
2023/12/12 02:05:20;;;;;;;17.53;10.67;;;;;;;;;;5031347;28;20447;-84
2023/12/12 02:07:47;;;;;;;17.20;11.90;;;;;;;;;;5031284;28;20462;-84
2023/12/12 02:10:13;;;;;;;16.73;10.60;;;;;;;;;;5015979;28;20479;-84
2023/12/12 02:12:39;;;;;;;19.43;10.00;;;;;;;;;;5015608;28;20416;-85
2023/12/12 02:15:05;;;;;;;14.80;9.83;;;;;;;;;;5031216;28;20431;-85
2023/12/12 02:17:31;;;;;;;14.93;9.63;;;;;;;;;;5015868;28;20415;-84
2023/12/12 02:19:58;;;;;;;17.90;10.77;;;;;;;;;;5015557;28;20783;-85
2023/12/12 02:22:23;;;;;;;17.40;10.47;;;;;;;;;;5030974;28;20417;-85
2023/12/12 02:24:49;;;;;;;16.20;9.77;;;;;;;;;;5015594;28;20472;-84
2023/12/12 02:27:16;;;;;;;20.57;12.07;;;;;;;;;;5015398;28;20528;-84
2023/12/12 02:29:42;;;;;;;17.97;10.00;;;;;;;;;;5030866;28;20842;-84
2023/12/12 02:32:08;;;;;;;16.90;8.83;;;;;;;;;;5030838;28;20500;-84
2023/12/12 02:34:34;;;;;;;15.23;8.03;;;;;;;;;;5015504;28;20478;-84
2023/12/12 02:37:00;;;;;;;22.10;10.67;;;;;;;;;;5015495;28;20513;-84
2023/12/12 02:39:29;;;;;;;24.40;10.67;;;;;;;;;;5015469;28;20167;-84
2023/12/12 02:41:55;;;;;;;20.27;8.80;;;;;;;;;;5015432;28;20497;-84
2023/12/12 02:44:21;;;;;;;25.63;9.77;;;;;;;;;;5015121;28;20448;-83
2023/12/12 02:46:46;;;;;;;26.73;12.50;;;;;;;;;;5015253;28;20506;-84
2023/12/12 02:49:12;;;;;;;29.90;13.93;;;;;;;;;;5015191;28;20462;-83
2023/12/12 02:51:38;;;;;;;26.00;13.00;;;;;;;;;;5015200;28;20448;-84
2023/12/12 02:54:04;;;;;;;36.50;15.63;;;;;;;;;;5030482;28;20407;-84
2023/12/12 02:56:33;;;;;;;31.70;13.70;;;;;;;;;;5015151;28;20416;-84
2023/12/12 02:59:02;;;;;;;33.00;12.53;;;;;;;;;;5014732;28;20412;-84
2023/12/12 03:01:28;;;;;;;28.67;14.53;;;;;;;;;;5009467;28;20482;-84
2023/12/12 03:03:54;;;;;;;27.07;13.40;;;;;;;;;;5007562;28;20410;-84
2023/12/12 03:06:20;;;;;;;43.50;14.33;;;;;;;;;;5001240;28;20500;-84
2023/12/12 03:08:46;;;;;;;29.60;13.90;;;;;;;;;;5009476;28;20174;-84
2023/12/12 03:11:12;;;;;;;36.53;14.57;;;;;;;;;;5010132;28;20424;-84
2023/12/12 03:13:38;;;;;;;33.00;13.47;;;;;;;;;;4984348;28;20432;-84
2023/12/12 03:16:04;;;;;;;44.67;15.50;;;;;;;;;;5014843;28;20418;-84
2023/12/12 03:18:30;;;;;;;39.67;15.27;;;;;;;;;;5014738;28;20204;-84
2023/12/12 03:20:56;;;;;;;37.00;13.97;;;;;;;;;;5029907;28;20905;-84
2023/12/12 03:23:22;;;;;;;33.97;13.70;;;;;;;;;;5014603;28;20506;-84
2023/12/12 03:25:48;;;;;;;34.63;15.30;;;;;;;;;;5029166;28;20469;-84
2023/12/12 03:28:14;;;;;;;37.33;14.70;;;;;;;;;;5028757;28;20421;-84
2023/12/12 03:30:40;;;;;;;34.03;13.87;;;;;;;;;;5014068;28;20476;-84
2023/12/12 03:33:06;;;;;;;40.83;16.53;;;;;;;;;;5006140;28;20425;-84
2023/12/12 03:35:32;;;;;;;40.40;15.40;;;;;;;;;;4992984;28;20432;-84
2023/12/12 03:37:58;;;;;;;49.40;14.90;;;;;;;;;;4994083;28;20749;-85
2023/12/12 03:40:24;;;;;;;41.77;17.20;;;;;;;;;;4994727;28;20770;-84
2023/12/12 03:42:49;;;;;;;52.67;16.37;;;;;;;;;;4993508;28;20407;-84
2023/12/12 03:45:15;;;;;;;49.43;15.97;;;;;;;;;;4995017;28;20429;-84
2023/12/12 03:47:41;;;;;;;40.83;14.63;;;;;;;;;;4995385;28;20416;-84
2023/12/12 03:50:07;;;;;;;57.43;17.90;;;;;;;;;;5004525;28;20473;-84
2023/12/12 03:52:33;;;;;;;47.00;16.90;;;;;;;;;;4994556;28;20744;-84
2023/12/12 03:54:59;;;;;;;43.50;17.10;;;;;;;;;;4994402;28;20460;-84
2023/12/12 03:57:25;;;;;;;44.97;16.67;;;;;;;;;;4994156;28;20466;-84
2023/12/12 03:59:51;;;;;;;38.07;15.30;;;;;;;;;;4994297;28;20811;-84
2023/12/12 04:02:17;;;;;;;41.60;16.10;;;;;;;;;;5009410;28;20515;-83
2023/12/12 04:04:43;;;;;;;44.40;18.50;;;;;;;;;;5009369;28;20854;-85
2023/12/12 04:07:09;;;;;;;46.07;16.90;;;;;;;;;;4994285;28;20453;-85
2023/12/12 04:09:35;;;;;;;42.23;17.97;;;;;;;;;;4994135;28;20587;-83
2023/12/12 04:12:01;;;;;;;36.73;16.30;;;;;;;;;;4993895;28;20886;-85
2023/12/12 04:14:26;;;;;;;47.00;18.00;;;;;;;;;;5009133;28;20426;-85
2023/12/12 04:16:52;;;;;;;53.53;17.73;;;;;;;;;;4994096;28;20408;-83
2023/12/12 04:19:18;;;;;;;58.70;18.50;;;;;;;;;;4994008;28;20421;-84
2023/12/12 04:21:44;;;;;;;47.87;16.80;;;;;;;;;;5008890;28;20175;-83
2023/12/12 04:24:10;;;;;;;44.63;16.90;;;;;;;;;;5008847;28;20469;-83
2023/12/12 04:26:36;;;;;;;56.20;18.33;;;;;;;;;;4993992;28;20787;-84
2023/12/12 04:29:04;;;;;;;42.20;17.57;;;;;;;;;;4993385;28;20553;-84
2023/12/12 04:31:30;;;;;;;54.30;16.87;;;;;;;;;;4993906;28;20426;-85
2023/12/12 04:33:56;;;;;;;39.27;16.83;;;;;;;;;;5008959;28;20751;-85
2023/12/12 04:36:22;;;;;;;50.60;19.03;;;;;;;;;;4970743;28;20477;-85
2023/12/12 04:38:48;;;;;;;52.73;18.10;;;;;;;;;;5028718;28;20844;-86
2023/12/12 04:41:14;;;;;;;96.50;20.77;;;;;;;;;;5013393;28;20765;-85
2023/12/12 04:43:41;;;;;;;98.80;21.90;;;;;;;;;;5013122;28;20409;-86
2023/12/12 04:46:07;;;;;;;53.30;21.00;;;;;;;;;;5013326;28;20455;-86
2023/12/12 04:48:33;;;;;;;57.50;18.80;;;;;;;;;;5013392;28;20413;-85
2023/12/12 04:51:00;;;;;;;45.20;18.03;;;;;;;;;;5013167;28;20479;-86
2023/12/12 04:53:26;;;;;;;48.13;19.20;;;;;;;;;;5013230;28;20409;-84
2023/12/12 04:55:51;;;;;;;50.13;19.50;;;;;;;;;;5013216;28;20910;-85
2023/12/12 04:58:17;;;;;;;45.40;18.70;;;;;;;;;;5012832;28;20412;-85
2023/12/12 05:00:46;;;;;;;45.60;17.03;;;;;;;;;;5013203;28;20418;-85
2023/12/12 05:03:12;;;;;;;42.27;16.30;;;;;;;;;;5013208;28;20449;-85
2023/12/12 05:05:39;;;;;;;40.07;17.00;;;;;;;;;;5028368;28;20464;-85
2023/12/12 05:08:05;;;;;;;42.67;19.30;;;;;;;;;;5013080;28;20468;-86
2023/12/12 05:10:31;;;;;;;41.60;16.70;;;;;;;;;;5013049;28;20471;-85
2023/12/12 05:12:56;;;;;;;45.40;19.37;;;;;;;;;;5027944;28;20460;-84
2023/12/12 05:15:22;;;;;;;40.60;16.50;;;;;;;;;;5013128;28;20639;-86
2023/12/12 05:17:48;;;;;;;50.47;19.50;;;;;;;;;;5012989;28;20420;-85
2023/12/12 05:20:14;;;;;;;52.00;19.57;;;;;;;;;;5013008;28;20417;-85
2023/12/12 05:22:40;;;;;;;46.23;16.10;;;;;;;;;;5013253;28;20414;-85
2023/12/12 05:25:06;;;;;;;41.30;15.10;;;;;;;;;;5012799;28;20454;-85
2023/12/12 05:27:32;;;;;;;43.57;16.93;;;;;;;;;;5012740;28;20445;-83
2023/12/12 05:29:58;;;;;;;43.27;17.60;;;;;;;;;;5013021;28;21022;-84
2023/12/12 05:32:24;;;;;;;39.03;16.50;;;;;;;;;;5013656;28;20439;-83
2023/12/12 05:34:50;;;;;;;37.90;15.77;;;;;;;;;;5031835;28;20531;-84
2023/12/12 05:37:16;;;;;;;33.93;15.30;;;;;;;;;;5016501;28;20173;-83
2023/12/12 05:39:41;;;;;;;37.10;15.73;;;;;;;;;;5016577;28;20424;-84
2023/12/12 05:42:08;;;;;;;35.53;15.53;;;;;;;;;;5031383;28;20943;-84
2023/12/12 05:44:34;;;;;;;34.90;15.07;;;;;;;;;;5016452;28;20185;-83
2023/12/12 05:47:00;;;;;;;35.07;15.20;;;;;;;;;;5031593;28;20422;-84
2023/12/12 05:49:26;;;;;;;41.00;15.97;;;;;;;;;;5016221;28;20208;-84
2023/12/12 05:51:52;;;;;;;47.37;17.17;;;;;;;;;;5016351;28;20425;-84
2023/12/12 05:54:17;;;;;;;42.10;15.33;;;;;;;;;;5016290;28;20495;-84
2023/12/12 05:56:46;;;;;;;60.77;18.57;;;;;;;;;;5015853;28;20463;-84
2023/12/12 05:59:15;;;;;;;47.13;15.67;;;;;;;;;;5016219;28;20416;-84
2023/12/12 06:01:42;;;;;;;38.63;15.87;;;;;;;;;;5016131;28;20411;-85
2023/12/12 06:04:11;;;;;;;46.53;16.67;;;;;;;;;;5016036;28;20416;-84
2023/12/12 06:06:41;;;;;;;60.30;16.93;;;;;;;;;;5031368;28;20408;-85
2023/12/12 06:09:07;;;;;;;47.50;17.30;;;;;;;;;;5031211;28;20599;-84
2023/12/12 06:11:33;;;;;;;41.10;15.20;;;;;;;;;;5016038;28;20494;-84
2023/12/12 06:13:58;;;;;;;42.20;15.40;;;;;;;;;;5015502;28;20913;-85
2023/12/12 06:16:24;;;;;;;37.33;15.57;;;;;;;;;;5031110;28;20177;-84
2023/12/12 06:18:51;;;;;;;51.60;15.33;;;;;;;;;;5030964;28;20837;-85
2023/12/12 06:21:17;;;;;;;47.43;15.87;;;;;;;;;;5015760;28;20515;-84
2023/12/12 06:23:43;;;;;;;40.77;15.67;;;;;;;;;;5030468;28;20485;-85
2023/12/12 06:26:14;;;;;;;37.53;14.40;;;;;;;;;;5014582;28;20957;-84
2023/12/12 06:28:40;;;;;;;38.50;14.33;;;;;;;;;;5029510;28;20451;-84
2023/12/12 06:31:07;;;;;;;34.00;13.80;;;;;;;;;;5014473;28;20949;-85
2023/12/12 06:33:33;;;;;;;38.60;13.90;;;;;;;;;;5014499;28;20170;-84
2023/12/12 06:35:59;;;;;;;40.47;14.17;;;;;;;;;;5014408;28;20563;-84
2023/12/12 06:38:25;;;;;;;31.30;14.27;;;;;;;;;;5029547;28;20424;-85
2023/12/12 06:40:51;;;;;;;38.70;15.90;;;;;;;;;;5014441;28;20472;-85
2023/12/12 06:43:20;;;;;;;35.47;14.10;;;;;;;;;;5013893;28;20589;-84
2023/12/12 06:45:46;;;;;;;42.70;16.40;;;;;;;;;;4973695;28;20438;-84
2023/12/12 06:48:12;;;;;;;39.23;13.90;;;;;;;;;;5014181;28;20425;-85
2023/12/12 06:50:38;;;;;;;40.90;14.50;;;;;;;;;;5014122;28;20476;-85
2023/12/12 06:53:04;;;;;;;46.10;13.97;;;;;;;;;;5014233;28;20410;-85
2023/12/12 06:55:30;;;;;;;37.27;15.33;;;;;;;;;;5014145;28;20508;-86
2023/12/12 06:57:57;;;;;;;36.70;15.57;;;;;;;;;;5013734;28;20412;-85
2023/12/12 07:00:24;;;;;;;43.33;14.77;;;;;;;;;;5029251;28;20463;-85
2023/12/12 07:02:50;;;;;;;43.90;17.10;;;;;;;;;;5014159;28;20563;-84
2023/12/12 07:05:16;;;;;;;43.83;15.07;;;;;;;;;;5014168;28;20461;-87
2023/12/12 07:07:43;;;;;;;39.53;15.27;;;;;;;;;;5014079;28;20456;-87
2023/12/12 07:10:09;;;;;;;47.70;17.47;;;;;;;;;;5013811;28;20479;-87
2023/12/12 07:12:35;;;;;;;50.00;17.63;;;;;;;;;;5013677;28;20421;-86
2023/12/12 07:15:01;;;;;;;46.27;16.87;;;;;;;;;;5014101;28;20790;-86
2023/12/12 07:17:27;;;;;;;49.50;16.73;;;;;;;;;;5013936;28;20417;-86
2023/12/12 07:19:54;;;;;;;45.57;15.80;;;;;;;;;;5013812;28;20501;-84
2023/12/12 07:22:21;;;;;;;43.97;17.00;;;;;;;;;;5013800;28;20505;-84
2023/12/12 07:24:46;;;;;;;41.60;14.70;;;;;;;;;;4989730;28;1005041;-84
2023/12/12 07:27:12;;;;;;;45.30;15.70;;;;;;;;;;4994646;28;20216;-84
2023/12/12 07:29:38;;;;;;;54.10;17.87;;;;;;;;;;5009843;28;20522;-84
2023/12/12 07:32:05;;;;;;;56.43;16.43;;;;;;;;;;4994865;28;20428;-84
2023/12/12 07:34:31;;;;;;;48.90;16.50;;;;;;;;;;4994797;28;20441;-85
2023/12/12 07:36:56;;;;;;;45.43;16.40;;;;;;;;;;4994901;28;20911;-85
2023/12/12 07:39:22;;;;;;;53.80;17.60;;;;;;;;;;4994380;28;21005;-85
2023/12/12 07:41:51;;;;;;;64.50;19.37;;;;;;;;;;5009439;28;20184;-84
2023/12/12 07:44:17;;;;;;;55.63;18.00;;;;;;;;;;4994474;28;20424;-84
2023/12/12 07:46:43;;;;;;;57.90;17.20;;;;;;;;;;4994491;28;20749;-85
2023/12/12 07:49:09;;;;;;;50.50;16.67;;;;;;;;;;4966057;28;21033;-85
2023/12/12 07:51:35;;;;;;;40.23;16.17;;;;;;;;;;5014036;28;20204;-84
2023/12/12 07:54:04;;;;;;;51.03;16.83;;;;;;;;;;5025387;28;20436;-83
2023/12/12 07:56:30;;;;;;;54.70;17.00;;;;;;;;;;4993555;28;20781;-84
2023/12/12 07:58:56;;;;;;;46.63;17.10;;;;;;;;;;4994243;28;20417;-84
2023/12/12 08:01:22;;;;;;;47.77;15.80;;;;;;;;;;4994240;28;20516;-85
2023/12/12 08:03:48;;;;;;;51.27;18.50;;;;;;;;;;4994245;28;20468;-84
2023/12/12 08:06:16;;;;;;;48.10;17.47;;;;;;;;;;4994110;28;20413;-84
2023/12/12 08:08:42;;;;;;;53.73;17.50;;;;;;;;;;4994220;28;20441;-84
2023/12/12 08:11:14;;;;;;;44.93;15.97;;;;;;;;;;4994044;28;20565;-84
2023/12/12 08:13:40;;;;;;;41.23;15.27;;;;;;;;;;4994058;28;20421;-86
2023/12/12 08:16:07;;;;;;;45.00;15.30;;;;;;;;;;4993946;28;20415;-85
2023/12/12 08:18:33;;;;;;;38.23;14.17;;;;;;;;;;4994114;28;20415;-85
2023/12/12 08:20:59;;;;;;;45.50;16.70;;;;;;;;;;5009010;28;20436;-83
2023/12/12 08:23:25;;;;;;;36.40;15.03;;;;;;;;;;4994036;28;20766;-84
2023/12/12 08:25:51;;;;;;;32.40;12.90;;;;;;;;;;5003216;28;20469;-85
2023/12/12 08:28:17;;;;;;;38.77;14.57;;;;;;;;;;5013366;28;20430;-86
2023/12/12 08:30:43;;;;;;;32.10;13.50;;;;;;;;;;5013632;28;20476;-84
2023/12/12 08:33:09;;;;;;;27.97;13.53;;;;;;;;;;5014276;28;20409;-84
2023/12/12 08:35:36;;;;;;;37.85;16.10;;;;;;;;;;5013900;28;20783;-84
2023/12/12 08:38:02;;;;;;;29.90;13.07;;;;;;;;;;5034617;28;20182;-82
2023/12/12 08:40:28;;;;;;;28.63;12.60;;;;;;;;;;5016100;28;20486;-84
2023/12/12 08:42:53;;;;;;;29.63;12.77;;;;;;;;;;5012992;28;20837;-85
2023/12/12 08:45:19;;;;;;;32.07;12.83;;;;;;;;;;5013184;28;20427;-84
2023/12/12 08:47:45;;;;;;;26.67;13.67;;;;;;;;;;5013293;28;20658;-84
2023/12/12 08:50:11;;;;;;;27.80;12.97;;;;;;;;;;5006831;28;20852;-84
2023/12/12 08:52:37;;;;;;;24.50;12.40;;;;;;;;;;5032962;28;20419;-84
2023/12/12 08:55:05;;;;;;;30.10;13.07;;;;;;;;;;5048370;28;20431;-84
2023/12/12 08:57:31;;;;;;;31.17;13.37;;;;;;;;;;5032641;28;20660;-84
2023/12/12 08:59:57;;;;;;;25.10;13.50;;;;;;;;;;5032943;28;20415;-84
2023/12/12 09:02:23;;;;;;;24.63;12.77;;;;;;;;;;5032720;28;20474;-84
2023/12/12 09:04:49;;;;;;;19.87;9.97;;;;;;;;;;5032867;28;20426;-84
2023/12/12 09:07:15;;;;;;;19.60;11.67;;;;;;;;;;5033475;28;20416;-84
2023/12/12 09:09:41;;;;;;;29.60;13.00;;;;;;;;;;5036829;28;21058;-84
2023/12/12 09:12:08;;;;;;;24.20;10.90;;;;;;;;;;5051828;28;20515;-84
2023/12/12 09:14:34;;;;;;;21.87;11.57;;;;;;;;;;5036795;28;20415;-84
2023/12/12 09:17:00;;;;;;;26.77;11.60;;;;;;;;;;5036800;28;20930;-84
2023/12/12 09:19:26;;;;;;;25.23;11.47;;;;;;;;;;5036685;28;20852;-84
2023/12/12 09:21:54;;;;;;;27.13;11.87;;;;;;;;;;5036721;28;20953;-84
2023/12/12 09:24:23;;;;;;;25.23;11.30;;;;;;;;;;5036449;28;20223;-84
2023/12/12 09:26:49;;;;;;;26.70;11.73;;;;;;;;;;5036307;28;20413;-84
2023/12/12 09:29:15;;;;;;;19.20;9.90;;;;;;;;;;5036546;28;20455;-84
2023/12/12 09:31:41;;;;;;;17.33;8.77;;;;;;;;;;5036505;28;20920;-84
2023/12/12 09:34:07;;;;;;;17.17;8.47;;;;;;;;;;5036479;28;20420;-84
2023/12/12 09:36:33;;;;;;;23.77;10.10;;;;;;;;;;5036385;28;20182;-84
2023/12/12 09:38:59;;;;;;;20.50;10.00;;;;;;;;;;5036419;28;20409;-84
2023/12/12 09:41:25;;;;;;;22.53;11.07;;;;;;;;;;5035984;28;20466;-84
2023/12/12 09:43:52;;;;;;;24.67;13.10;;;;;;;;;;5036303;28;20225;-84
2023/12/12 09:46:20;;;;;;;18.17;8.93;;;;;;;;;;5051718;28;20933;-84
2023/12/12 09:48:47;;;;;;;22.13;10.00;;;;;;;;;;5036256;28;20409;-83
2023/12/12 09:51:17;;;;;;;26.53;12.90;;;;;;;;;;5035994;28;20564;-83
2023/12/12 09:53:48;;;;;;;19.27;8.10;;;;;;;;;;5049122;28;20966;-84
2023/12/12 09:56:18;;;;;;;14.13;5.97;;;;;;;;;;5015928;28;20909;-84
2023/12/12 09:58:53;;;;;;;12.33;5.47;;;;;;;;;;5016335;28;20406;-84
2023/12/12 10:01:19;;;;;;;15.17;7.73;;;;;;;;;;5016197;28;20399;-84
2023/12/12 10:03:45;;;;;;;12.57;5.20;;;;;;;;;;5016245;28;20424;-85
2023/12/12 10:06:11;;;;;;;13.40;6.57;;;;;;;;;;5016099;28;20399;-85
2023/12/12 10:08:38;;;;;;;13.20;5.97;;;;;;;;;;5031396;28;20418;-85
2023/12/12 10:11:08;;;;;;;13.60;7.10;;;;;;;;;;5015701;28;20505;-84
2023/12/12 10:14:06;;;;;;;11.87;6.00;;;;;;;;;;5015993;28;20779;-86
2023/12/12 10:16:32;;;;;;;13.70;6.57;;;;;;;;;;4993453;28;20927;-85
2023/12/12 10:19:01;;;;;;;15.87;6.47;;;;;;;;;;5015553;28;20416;-85
2023/12/12 10:21:34;;;;;;;10.53;5.37;;;;;;;;;;5015826;28;20773;-85
2023/12/12 10:24:00;;;;;;;14.87;7.30;;;;;;;;;;5015628;28;20798;-85
2023/12/12 10:26:27;;;;;;;12.30;6.50;;;;;;;;;;5015399;28;20413;-85
2023/12/12 10:28:54;;;;;;;17.00;7.37;;;;;;;;;;5030773;28;20425;-85
2023/12/12 10:31:20;;;;;;;12.27;6.30;;;;;;;;;;5030878;28;20435;-85
2023/12/12 10:33:46;;;;;;;19.13;8.13;;;;;;;;;;5015566;28;20483;-86
2023/12/12 10:36:12;;;;;;;14.77;7.40;;;;;;;;;;5015504;28;20413;-85
2023/12/12 10:38:39;;;;;;;24.20;13.50;;;;;;;;;;5015415;28;20414;-85
2023/12/12 10:41:11;;;;;;;18.63;9.37;;;;;;;;;;5015132;28;20423;-85
2023/12/12 10:43:41;;;;;;;14.27;7.93;;;;;;;;;;5015395;28;20410;-85
2023/12/12 10:46:17;;;;;;;15.40;7.97;;;;;;;;;;5015256;28;20417;-85
2023/12/12 10:48:44;;;;;;;15.23;7.47;;;;;;;;;;5030519;28;20479;-85
2023/12/12 10:51:11;;;;;;;14.47;7.27;;;;;;;;;;5030396;28;20469;-84
2023/12/12 10:53:38;;;;;;;13.30;6.53;;;;;;;;;;5030354;28;20477;-84
2023/12/12 10:56:07;;;;;;;12.97;5.40;;;;;;;;;;5014695;28;20889;-85
2023/12/12 10:58:33;;;;;;;12.87;6.83;;;;;;;;;;5015093;28;20405;-85
2023/12/12 11:01:01;;;;;;;21.13;13.67;;;;;;;;;;5015138;28;20464;-85
2023/12/12 11:03:28;;;;;;;16.70;8.30;;;;;;;;;;5015048;28;20497;-85
2023/12/12 11:05:55;;;;;;;26.17;14.80;;;;;;;;;;5030245;28;20421;-83
2023/12/12 11:08:22;;;;;;;17.20;9.40;;;;;;;;;;5014915;28;20410;-85
2023/12/12 11:10:50;;;;;;;17.43;8.10;;;;;;;;;;5014410;28;20476;-86
2023/12/12 11:13:18;;;;;;;12.97;6.80;;;;;;;;;;5014963;28;20421;-87
2023/12/12 11:15:45;;;;;;;15.90;7.70;;;;;;;;;;5014914;28;20406;-86
2023/12/12 11:18:11;;;;;;;16.87;7.90;;;;;;;;;;5014732;28;20409;-86
2023/12/12 11:20:41;;;;;;;15.77;7.03;;;;;;;;;;5014771;28;20512;-83
2023/12/12 11:23:07;;;;;;;10.10;5.47;;;;;;;;;;5014662;28;20897;-83
2023/12/12 11:25:34;;;;;;;16.03;9.33;;;;;;;;;;5014540;28;20818;-85
2023/12/12 11:28:01;;;;;;;17.80;11.30;;;;;;;;;;5014320;28;20409;-83
2023/12/12 11:30:31;;;;;;;17.30;8.47;;;;;;;;;;5013713;28;20482;-83
2023/12/12 11:32:57;;;;;;;15.53;9.10;;;;;;;;;;5014489;28;20416;-86
2023/12/12 11:35:31;;;;;;;15.37;7.73;;;;;;;;;;5014393;28;20958;-83
2023/12/12 11:37:58;;;;;;;10.90;6.20;;;;;;;;;;5014495;28;20432;-87
2023/12/12 11:40:27;;;;;;;14.70;7.67;;;;;;;;;;5029672;28;20426;-86
2023/12/12 11:42:55;;;;;;;14.23;6.50;;;;;;;;;;5013937;28;20402;-83
2023/12/12 11:45:31;;;;;;;13.33;7.10;;;;;;;;;;5014329;28;20917;-84
2023/12/12 11:47:59;;;;;;;14.17;7.93;;;;;;;;;;5014295;28;20415;-83
2023/12/12 11:50:25;;;;;;;14.80;8.13;;;;;;;;;;5014159;28;20466;-83
2023/12/12 11:52:50;;;;;;;14.90;7.40;;;;;;;;;;5029278;28;20444;-85
2023/12/12 11:55:21;;;;;;;14.57;6.90;;;;;;;;;;5014076;28;20937;-86
2023/12/12 11:57:46;;;;;;;17.90;9.00;;;;;;;;;;5013737;28;20183;-86
2023/12/12 12:00:22;;;;;;;16.87;10.63;;;;;;;;;;5014096;28;20414;-84
2023/12/12 12:02:48;;;;;;;21.10;10.40;;;;;;;;;;5013916;28;20407;-83
2023/12/12 12:05:14;;;;;;;19.50;11.63;;;;;;;;;;5013856;28;20419;-86
2023/12/12 12:07:40;;;;;;;16.40;8.10;;;;;;;;;;5013838;28;20413;-86
2023/12/12 12:10:08;;;;;;;17.93;9.13;;;;;;;;;;5013778;28;20504;-83
2023/12/12 12:12:34;;;;;;;15.20;8.63;;;;;;;;;;5013501;28;20413;-87
2023/12/12 12:15:07;;;;;;;17.20;9.97;;;;;;;;;;5013844;28;20410;-83
2023/12/12 12:17:34;;;;;;;14.60;7.83;;;;;;;;;;5028945;28;20435;-83
2023/12/12 12:20:00;;;;;;;15.67;8.57;;;;;;;;;;5013652;28;20402;-84
2023/12/12 12:22:26;;;;;;;13.73;6.73;;;;;;;;;;5028814;28;20417;-83
2023/12/12 12:24:52;;;;;;;13.80;8.30;;;;;;;;;;5013519;28;20246;-83
2023/12/12 12:27:18;;;;;;;12.33;5.47;;;;;;;;;;5013195;28;20419;-83
2023/12/12 12:29:57;;;;;;;16.37;8.73;;;;;;;;;;5013316;28;20485;-85
2023/12/12 12:32:23;;;;;;;14.23;7.53;;;;;;;;;;5013590;28;20410;-84
2023/12/12 12:34:49;;;;;;;17.40;8.27;;;;;;;;;;5013533;28;20398;-83
2023/12/12 12:37:34;;;;;;;17.10;7.53;;;;;;;;;;5028707;28;20427;-83
2023/12/12 12:40:04;;;;;;;19.73;9.50;;;;;;;;;;5013411;28;20413;-86
2023/12/12 12:42:37;;;;;;;16.87;8.70;;;;;;;;;;5013100;28;20419;-83
2023/12/12 12:45:04;;;;;;;18.87;9.80;;;;;;;;;;5013377;28;20402;-83
2023/12/12 12:47:30;;;;;;;13.30;7.30;;;;;;;;;;5013488;28;20417;-86
2023/12/12 12:49:56;;;;;;;16.10;6.87;;;;;;;;;;5013281;28;20799;-86
2023/12/12 12:52:22;;;;;;;12.60;5.90;;;;;;;;;;5013424;28;20414;-83
2023/12/12 12:54:51;;;;;;;16.40;8.97;;;;;;;;;;5013100;28;20921;-84
2023/12/12 12:57:17;;;;;;;11.60;6.40;;;;;;;;;;5028056;28;20418;-83
2023/12/12 12:59:43;;;;;;;15.37;8.10;;;;;;;;;;5013255;28;20410;-86
2023/12/12 13:02:09;;;;;;;15.30;7.87;;;;;;;;;;5013429;28;20413;-85
2023/12/12 13:04:35;;;;;;;14.40;6.57;;;;;;;;;;5028666;28;20472;-82
2023/12/12 13:07:03;;;;;;;14.27;7.47;;;;;;;;;;5013226;28;20427;-82
2023/12/12 13:09:32;;;;;;;8.87;4.73;;;;;;;;;;5012958;28;20467;-83
2023/12/12 13:11:58;;;;;;;13.80;6.93;;;;;;;;;;5012775;28;20420;-82
2023/12/12 13:14:25;;;;;;;12.33;4.80;;;;;;;;;;5013182;28;20412;-87
2023/12/12 13:16:51;;;;;;;11.00;4.83;;;;;;;;;;5013153;28;20410;-83
2023/12/12 13:19:17;;;;;;;10.33;4.90;;;;;;;;;;5013018;28;20450;-82
2023/12/12 13:21:43;;;;;;;7.23;3.60;;;;;;;;;;5013551;28;20827;-82
2023/12/12 13:24:09;;;;;;;8.83;4.00;;;;;;;;;;5009627;28;20598;-82
2023/12/12 13:26:35;;;;;;;9.20;3.63;;;;;;;;;;4979061;28;20416;-83
2023/12/12 13:29:01;;;;;;;10.23;5.13;;;;;;;;;;5017989;28;20420;-85
2023/12/12 13:31:27;;;;;;;14.25;8.05;;;;;;;;;;5027332;28;20489;-83
2023/12/12 13:33:53;;;;;;;9.87;5.20;;;;;;;;;;5014233;28;20174;-87
2023/12/12 13:36:20;;;;;;;10.20;6.60;;;;;;;;;;5013146;28;20419;-84
2023/12/12 13:38:48;;;;;;;9.97;5.30;;;;;;;;;;5012956;28;20417;-85
2023/12/12 13:41:16;;;;;;;14.07;5.90;;;;;;;;;;5012282;28;20424;-84
2023/12/12 13:43:42;;;;;;;6.80;4.17;;;;;;;;;;5012365;28;20401;-84
2023/12/12 13:46:08;;;;;;;8.10;4.63;;;;;;;;;;5012504;28;20412;-84
2023/12/12 13:48:35;;;;;;;10.70;5.70;;;;;;;;;;5012215;28;20461;-85
2023/12/12 13:51:03;;;;;;;10.60;5.00;;;;;;;;;;5012213;28;20476;-84
2023/12/12 13:53:28;;;;;;;10.60;5.70;;;;;;;;;;5028830;28;20882;-86
2023/12/12 13:55:54;;;;;;;11.80;6.20;;;;;;;;;;5016049;28;20422;-84
2023/12/12 13:58:20;;;;;;;10.40;5.23;;;;;;;;;;5016193;28;20170;-85
2023/12/12 14:00:47;;;;;;;10.90;5.50;;;;;;;;;;5015844;28;20482;-84
2023/12/12 14:03:13;;;;;;;10.77;6.30;;;;;;;;;;5016284;28;20420;-84
2023/12/12 14:05:39;;;;;;;8.33;4.97;;;;;;;;;;5016140;28;20417;-85
2023/12/12 14:08:06;;;;;;;9.60;5.27;;;;;;;;;;5016108;28;20932;-85
2023/12/12 14:10:35;;;;;;;9.43;5.40;;;;;;;;;;5015536;28;20490;-85
2023/12/12 14:13:01;;;;;;;14.37;6.93;;;;;;;;;;5015934;28;20423;-85
2023/12/12 14:15:27;;;;;;;7.67;4.87;;;;;;;;;;5015988;28;20921;-85
2023/12/12 14:17:54;;;;;;;9.67;5.17;;;;;;;;;;5015858;28;20406;-84
2023/12/12 14:20:19;;;;;;;12.17;5.80;;;;;;;;;;5015895;28;20408;-85